Terminal Aerodrome Forecast
Issued by NWS

Current Version | Previous Version | Text Only | Print | Product List | Glossary Off
Versions: 1 2 3 4 5 6 7 8 9 10 11 12 13 14 15 16 17 18 19 20 21 22 23 24 25 26

000
FTUS41 KPBZ 211300 AAA
TAFMGW
TAF AMD
KMGW 211313Z 2113/2212 20005KT P6SM OVC010
      TEMPO 2113/2114 BKN009
     FM211500 21005KT P6SM BKN050
     FM211900 23008KT 6SM -SHRA VCTS BKN040CB
     FM220300 VRB03KT P6SM SCT040
     FM220800 VRB03KT 5SM BR SCT040=

USA.gov is the U.S. government's official web portal to all federal, state and local government web resources and services.